Rockwall's Hourly Summary for Sunday, July 8, 2018
Hour Temp
(f)
RH
(%)
Solar Rad.
(MJ/m2)
Rainfall
(in)
Wind
(mph)
7/8/2018 12:00 AM 80 67 0 0 0.94
7/8/2018 1:00 AM 79 71 0 0 0.4
7/8/2018 2:00 AM 77 75 0 0 0.01
7/8/2018 3:00 AM 76 78 0 0 0
7/8/2018 4:00 AM 75 82 0 0 0
7/8/2018 5:00 AM 74 85 0 0 0
7/8/2018 6:00 AM 74 85 0 0 0.01
7/8/2018 7:00 AM 74 85 0.05 0 0.4
7/8/2018 8:00 AM 76 79 0.48 0 2.52
7/8/2018 9:00 AM 78 74 1.1 0 3.21
7/8/2018 10:00 AM 82 68 1.74 0 3
7/8/2018 11:00 AM 84 61 1.92 0 2.84
7/8/2018 12:00 PM 87 53 2.68 0 3.64
7/8/2018 1:00 PM 89 49 2.93 0 4.29
7/8/2018 2:00 PM 90 45 2.13 0 3.64
7/8/2018 3:00 PM 92 42 2.38 0 4.67
7/8/2018 4:00 PM 93 38 2.15 0 5.19
7/8/2018 5:00 PM 93 39 1.55 0 4.44
7/8/2018 6:00 PM 91 41 1.12 0 3.62
7/8/2018 7:00 PM 89 50 0.46 0 4.43
7/8/2018 8:00 PM 88 53 0.16 0 5.43
7/8/2018 9:00 PM 86 56 0.04 0 3.91
7/8/2018 10:00 PM 83 59 0 0 1.88
7/8/2018 11:00 PM 82 61 0 0 2.11
Data Summary 83 62 20.89 0.00 2.52